Time;durP1;ratioP1;P1;durP2;ratioP2;P2;SDS_P1;SDS_P2;PMS_P1;PMS_P2;Temp;Humidity;BMP_temperature;BMP_pressure;BME280_temperature;BME280_humidity;BME280_pressure;Samples;Min_cycle;Max_cycle;Signal;HPM_P1;HPM_P2
2023/02/01 00:01:56;;;;;;;68.90;41.00;;;128.60;2252.80;;;;;;5053070;28;20483;-61
2023/02/01 00:04:22;;;;;;;50.50;33.08;;;128.70;2252.80;;;;;;5053824;28;20021;-58
2023/02/01 00:06:48;;;;;;;34.40;24.00;;;128.60;2252.80;;;;;;5053439;28;20025;-65
2023/02/01 00:09:14;;;;;;;12.15;5.78;;;128.60;2252.80;;;;;;5053326;28;20067;-64
2023/02/01 00:11:40;;;;;;;8.90;5.20;;;128.60;2252.80;;;;;;5053688;28;20028;-66
2023/02/01 00:14:06;;;;;;;10.75;6.07;;;128.80;2252.80;;;;;;5053306;28;20044;-61
2023/02/01 00:16:32;;;;;;;11.80;6.22;;;128.70;2252.80;;;;;;5053309;28;20032;-64
2023/02/01 00:19:02;;;;;;;13.68;8.30;;;128.70;2252.80;;;;;;5053085;28;20459;-61
2023/02/01 00:21:28;;;;;;;15.60;9.95;;;128.70;2252.80;;;;;;5053019;28;20111;-61
2023/02/01 00:23:54;;;;;;;17.92;10.10;;;128.70;2252.80;;;;;;5053028;28;20025;-61
2023/02/01 00:26:37;;;;;;;20.73;12.68;;;128.70;2252.80;;;;;;5053294;28;20028;-66
2023/02/01 00:29:06;;;;;;;23.27;14.38;;;128.70;2252.80;;;;;;5053190;28;20033;-69
2023/02/01 00:31:31;;;;;;;28.13;14.45;;;128.60;2252.80;;;;;;5052958;28;20487;-68
2023/02/01 00:33:57;;;;;;;23.20;14.85;;;128.50;2252.80;;;;;;5052933;28;20029;-61
2023/02/01 00:36:23;;;;;;;23.73;11.30;;;128.50;2252.80;;;;;;5035257;28;20040;-60
2023/02/01 00:38:49;;;;;;;16.25;9.80;;;128.40;2252.80;;;;;;5052814;28;20074;-61
2023/02/01 00:41:17;;;;;;;13.60;8.45;;;128.40;2252.80;;;;;;5051685;28;20032;-63
2023/02/01 00:43:44;;;;;;;14.55;8.95;;;128.40;2252.80;;;;;;5052557;28;20395;-61
2023/02/01 00:46:10;;;;;;;21.05;12.30;;;128.40;2252.80;;;;;;5052802;28;20079;-59
2023/02/01 00:48:36;;;;;;;19.02;11.93;;;128.40;2252.80;;;;;;5052299;28;20048;-68
2023/02/01 00:51:04;;;;;;;38.95;23.75;;;128.40;2252.80;;;;;;5052762;28;20017;-60
2023/02/01 00:53:31;;;;;;;26.05;15.23;;;128.60;2252.80;;;;;;5052588;28;20430;-66
2023/02/01 00:55:57;;;;;;;33.45;20.67;;;128.60;2252.80;;;;;;5052406;28;20032;-67
2023/02/01 00:58:26;;;;;;;26.23;15.55;;;128.50;2252.80;;;;;;5052523;28;20120;-68
2023/02/01 01:01:05;;;;;;;32.92;19.95;;;128.50;2252.80;;;;;;5052485;28;20017;-62
2023/02/01 01:03:33;;;;;;;33.80;20.17;;;128.40;2252.80;;;;;;5052570;28;20064;-68
2023/02/01 01:06:00;;;;;;;24.92;14.90;;;128.40;2252.80;;;;;;5052498;28;20017;-60
2023/02/01 01:08:26;;;;;;;80.47;44.47;;;128.30;2252.80;;;;;;5052022;28;20032;-65
2023/02/01 01:10:52;;;;;;;62.15;37.92;;;128.30;2252.80;;;;;;5052283;28;20471;-69
2023/02/01 01:13:18;;;;;;;54.33;36.15;;;128.20;2252.80;;;;;;5051957;28;20021;-68
2023/02/01 01:15:44;;;;;;;42.85;31.13;;;128.30;2252.80;;;;;;5052175;28;20025;-57
2023/02/01 01:18:10;;;;;;;42.70;27.83;;;128.40;2252.80;;;;;;5051723;28;20445;-66
2023/02/01 01:20:38;;;;;;;45.92;30.08;;;128.40;2252.80;;;;;;5034087;28;20403;-69
2023/02/01 01:23:04;;;;;;;57.33;37.53;;;128.40;2252.80;;;;;;5051836;28;20040;-58
2023/02/01 01:25:30;;;;;;;67.47;37.08;;;128.50;2252.80;;;;;;5051862;28;20036;-60
2023/02/01 01:27:58;;;;;;;29.05;16.02;;;128.50;2252.80;;;;;;5051784;28;20068;-60
2023/02/01 01:30:24;;;;;;;34.80;21.45;;;128.60;2252.80;;;;;;5051927;28;20488;-60
2023/02/01 01:32:52;;;;;;;13.93;8.65;;;128.50;2252.80;;;;;;5051838;28;20063;-60
2023/02/01 01:35:18;;;;;;;15.15;8.82;;;128.50;2252.80;;;;;;5051884;28;20028;-60
2023/02/01 01:37:44;;;;;;;14.00;7.55;;;128.40;2252.80;;;;;;5051580;28;20021;-61
2023/02/01 01:40:11;;;;;;;44.03;27.05;;;128.20;2252.80;;;;;;5051583;28;20037;-60
2023/02/01 01:42:42;;;;;;;41.55;24.05;;;128.30;2252.80;;;;;;5051457;28;20036;-64
2023/02/01 01:45:23;;;;;;;40.65;18.60;;;128.40;2252.80;;;;;;5051475;28;20463;-61
2023/02/01 01:47:54;;;;;;;26.92;16.33;;;128.30;2252.80;;;;;;5051651;28;20123;-60
2023/02/01 01:50:27;;;;;;;44.53;27.98;;;128.40;2252.80;;;;;;5051594;28;20032;-60
2023/02/01 01:52:55;;;;;;;28.92;19.08;;;128.40;2252.80;;;;;;5051425;28;20031;-60
2023/02/01 01:55:22;;;;;;;18.25;11.20;;;128.40;2252.80;;;;;;5051402;28;20025;-60
2023/02/01 01:57:55;;;;;;;23.00;12.93;;;128.20;2252.80;;;;;;5051275;28;20017;-61
2023/02/01 02:00:24;;;;;;;22.10;11.05;;;128.20;2252.80;;;;;;5051366;28;20047;-60
2023/02/01 02:02:56;;;;;;;18.48;9.75;;;128.10;2252.80;;;;;;5051310;28;20032;-60
2023/02/01 02:05:22;;;;;;;29.77;13.95;;;128.10;2252.80;;;;;;5051295;28;20033;-67
2023/02/01 02:07:50;;;;;;;17.25;7.68;;;128.00;2252.80;;;;;;5050984;28;20368;-61
2023/02/01 02:10:16;;;;;;;16.45;10.00;;;103.20;2227.20;;;;;;5050893;28;20044;-60
2023/02/01 02:12:46;;;;;;;26.63;13.55;;;103.20;2227.20;;;;;;5051070;28;20032;-60
2023/02/01 02:15:14;;;;;;;21.38;12.25;;;103.20;2227.20;;;;;;5051160;28;20108;-68
2023/02/01 02:17:57;;;;;;;22.00;9.88;;;103.10;2227.20;;;;;;5051055;28;20067;-60
2023/02/01 02:20:41;;;;;;;29.73;14.85;;;103.00;2227.20;;;;;;5050692;28;20071;-65
2023/02/01 02:23:16;;;;;;;36.97;19.05;;;102.80;2227.20;;;;;;5050719;28;20037;-62
2023/02/01 02:25:54;;;;;;;31.05;20.00;;;102.80;2227.20;;;;;;5050854;28;20047;-69
2023/02/01 02:28:38;;;;;;;20.15;7.70;;;102.60;2227.20;;;;;;5051031;28;20055;-60
2023/02/01 02:31:29;;;;;;;12.88;7.10;;;102.50;2227.20;;;;;;5050571;28;20064;-68
2023/02/01 02:34:03;;;;;;;14.60;7.38;;;102.40;2227.20;;;;;;5050757;28;20033;-60
2023/02/01 02:36:52;;;;;;;12.57;6.60;;;77.70;2227.20;;;;;;5050789;28;20033;-62
2023/02/01 02:39:49;;;;;;;10.80;5.47;;;77.70;2227.20;;;;;;5050619;28;20033;-60
2023/02/01 02:48:24;;;;;;;44.20;22.65;;;77.60;2227.20;;;;;;5050302;28;20071;-66
2023/02/01 03:05:06;;;;;;;14.30;6.70;;;102.50;2227.20;;;;;;5053786;28;20078;-69
2023/02/01 03:08:02;;;;;;;14.23;5.93;;;102.40;2227.20;;;;;;5057001;28;20028;-60
2023/02/01 03:10:34;;;;;;;11.60;7.32;;;102.40;2227.20;;;;;;5057070;28;20480;-60
2023/02/01 03:13:04;;;;;;;14.70;9.00;;;77.70;2227.20;;;;;;5057016;28;20024;-69
2023/02/01 03:15:47;;;;;;;214.30;108.40;;;77.70;2227.20;;;;;;5057138;28;20025;-60
2023/02/01 03:18:24;;;;;;;63.55;34.45;;;77.60;2227.20;;;;;;5057145;28;20662;-60
2023/02/01 03:20:53;;;;;;;28.40;15.45;;;77.70;2227.20;;;;;;5057139;28;20029;-68
2023/02/01 03:23:22;;;;;;;23.77;13.15;;;102.40;2227.20;;;;;;5056907;28;20081;-60
2023/02/01 03:25:51;;;;;;;14.10;7.65;;;77.70;2227.20;;;;;;5056920;28;20028;-60
2023/02/01 03:28:20;;;;;;;15.68;7.70;;;77.70;2227.20;;;;;;5057053;28;20352;-69
2023/02/01 03:30:48;;;;;;;13.23;8.25;;;77.60;2227.20;;;;;;5056925;28;20028;-60
2023/02/01 03:33:23;;;;;;;25.13;15.15;;;77.70;2227.20;;;;;;5056828;28;20020;-60
2023/02/01 03:36:06;;;;;;;48.40;28.33;;;77.60;2227.20;;;;;;5056905;28;20463;-68
2023/02/01 03:38:40;;;;;;;34.63;20.52;;;77.70;2227.20;;;;;;5056965;28;20033;-60
2023/02/01 03:41:09;;;;;;;17.98;10.50;;;77.60;2227.20;;;;;;5056769;28;20064;-60
2023/02/01 03:43:48;;;;;;;12.38;7.45;;;77.50;2227.20;;;;;;5057064;28;20048;-60
2023/02/01 03:46:22;;;;;;;11.02;6.82;;;77.50;2227.20;;;;;;5059466;28;20024;-64
2023/02/01 03:48:49;;;;;;;14.73;8.18;;;77.40;2227.20;;;;;;5061236;28;20052;-63
2023/02/01 03:51:17;;;;;;;13.68;7.43;;;77.30;2227.20;;;;;;5061417;28;20494;-71
2023/02/01 03:53:47;;;;;;;19.98;8.88;;;77.30;2227.20;;;;;;5061350;28;20053;-60
2023/02/01 03:56:13;;;;;;;12.38;6.20;;;77.30;2227.20;;;;;;5060786;28;20463;-66
2023/02/01 03:58:39;;;;;;;16.83;6.75;;;77.30;2227.20;;;;;;5061159;28;20037;-62
2023/02/01 04:01:05;;;;;;;16.67;9.77;;;77.40;2227.20;;;;;;5062343;28;20029;-60
2023/02/01 04:03:32;;;;;;;16.38;9.45;;;77.50;2227.20;;;;;;5043778;28;20048;-68
2023/02/01 04:05:57;;;;;;;11.32;5.47;;;77.40;2227.20;;;;;;5061925;28;20074;-61
2023/02/01 04:08:24;;;;;;;8.50;4.60;;;77.30;2227.20;;;;;;5061581;28;20108;-60
2023/02/01 04:10:49;;;;;;;68.20;34.47;;;77.40;2227.20;;;;;;5062168;28;20029;-68
2023/02/01 04:13:15;;;;;;;26.95;15.23;;;77.30;2227.20;;;;;;5061737;28;20056;-60
2023/02/01 04:15:41;;;;;;;18.13;10.35;;;77.30;2227.20;;;;;;5055497;28;20086;-69
2023/02/01 04:18:06;;;;;;;63.28;30.05;;;77.40;2227.20;;;;;;5052356;28;20025;-70
2023/02/01 04:20:32;;;;;;;28.35;12.85;;;77.30;2227.20;;;;;;5053582;28;20029;-60
2023/02/01 04:22:58;;;;;;;15.68;8.80;;;77.10;2227.20;;;;;;5053179;28;20021;-61
2023/02/01 04:25:24;;;;;;;15.18;7.75;;;76.80;2227.20;;;;;;5052924;28;20036;-60
2023/02/01 04:27:49;;;;;;;18.25;8.32;;;76.80;2227.20;;;;;;5053242;28;20036;-60
2023/02/01 04:30:17;;;;;;;47.75;24.35;;;52.10;2227.20;;;;;;5053125;28;20028;-65
2023/02/01 04:32:43;;;;;;;139.50;78.60;;;52.10;2227.20;;;;;;5052975;28;20110;-65
2023/02/01 04:35:11;;;;;;;40.20;23.92;;;76.80;2227.20;;;;;;5052979;28;20455;-69
2023/02/01 04:37:37;;;;;;;94.35;51.95;;;76.80;2227.20;;;;;;5052784;28;20037;-60
2023/02/01 04:40:03;;;;;;;145.02;81.95;;;76.90;2227.20;;;;;;5052920;28;20033;-69
2023/02/01 04:42:29;;;;;;;27.25;24.38;;;76.90;2227.20;;;;;;5052769;28;20017;-60
2023/02/01 04:44:55;;;;;;;14.93;8.10;;;76.90;2227.20;;;;;;5052640;28;20471;-64
2023/02/01 04:47:20;;;;;;;26.38;15.98;;;52.00;2227.20;;;;;;5052581;28;20506;-69
2023/02/01 04:49:46;;;;;;;30.23;17.17;;;51.80;2227.20;;;;;;5052409;28;20032;-60
2023/02/01 04:52:11;;;;;;;21.08;10.52;;;51.90;2227.20;;;;;;5052758;28;20079;-60
2023/02/01 04:54:37;;;;;;;18.42;7.03;;;51.80;2227.20;;;;;;5052568;28;20033;-60
2023/02/01 04:57:03;;;;;;;18.27;11.50;;;51.90;2227.20;;;;;;5052452;28;20032;-61
2023/02/01 04:59:29;;;;;;;13.40;8.50;;;51.90;2227.20;;;;;;5052549;28;20122;-60
2023/02/01 05:01:54;;;;;;;23.35;11.38;;;51.90;2227.20;;;;;;5052444;28;20017;-60
2023/02/01 05:04:20;;;;;;;20.95;12.15;;;51.90;2227.20;;;;;;5052334;28;20021;-60
2023/02/01 05:06:46;;;;;;;21.42;11.90;;;51.80;2227.20;;;;;;5035605;28;20022;-59
2023/02/01 05:09:12;;;;;;;27.92;15.60;;;51.90;2227.20;;;;;;5032696;28;20060;-60
2023/02/01 05:14:21;;;;;;;10.70;5.90;;;76.80;2227.20;;;;;;5032620;28;20047;-58
2023/02/01 05:16:47;;;;;;;19.17;10.90;;;77.10;2227.20;;;;;;5032084;28;20530;-60
2023/02/01 05:19:13;;;;;;;11.32;6.65;;;77.20;2227.20;;;;;;5031981;28;20033;-60
2023/02/01 05:21:39;;;;;;;11.15;7.35;;;77.20;2227.20;;;;;;5014333;28;20041;-60
2023/02/01 05:24:12;;;;;;;11.15;6.70;;;77.20;2227.20;;;;;;5032108;28;20084;-61
2023/02/01 05:26:41;;;;;;;13.43;7.18;;;77.10;2227.20;;;;;;5031830;28;20033;-60
2023/02/01 05:29:08;;;;;;;20.52;11.57;;;77.10;2227.20;;;;;;5047894;28;20029;-63
2023/02/01 05:31:35;;;;;;;50.92;27.45;;;77.00;2227.20;;;;;;5051857;28;20029;-60
2023/02/01 05:34:01;;;;;;;24.63;12.38;;;77.00;2227.20;;;;;;5052195;28;20033;-68
2023/02/01 05:36:27;;;;;;;42.25;20.38;;;77.00;2227.20;;;;;;5051698;28;20055;-68
2023/02/01 05:38:53;;;;;;;33.80;15.77;;;77.00;2227.20;;;;;;5051668;28;20033;-61
2023/02/01 05:41:18;;;;;;;21.33;10.38;;;77.10;2227.20;;;;;;5051817;28;20017;-59
2023/02/01 05:43:44;;;;;;;44.42;22.08;;;77.20;2227.20;;;;;;5051604;28;20070;-64
2023/02/01 05:46:12;;;;;;;106.80;47.33;;;77.40;2227.20;;;;;;5051690;28;20040;-68
2023/02/01 05:48:42;;;;;;;38.60;18.77;;;77.50;2227.20;;;;;;5051370;28;20083;-60
2023/02/01 05:51:08;;;;;;;54.58;18.38;;;77.60;2227.20;;;;;;5051658;28;20028;-61
2023/02/01 05:53:34;;;;;;;74.72;32.40;;;77.70;2227.20;;;;;;5051454;28;20029;-60
2023/02/01 05:55:59;;;;;;;64.05;31.10;;;102.50;2227.20;;;;;;5051448;28;20040;-59
2023/02/01 05:58:25;;;;;;;29.48;13.18;;;102.80;2227.20;;;;;;5051461;28;20025;-60
2023/02/01 06:00:51;;;;;;;9.93;5.72;;;103.00;2227.20;;;;;;5051339;28;20342;-60
2023/02/01 06:03:17;;;;;;;10.32;5.78;;;103.10;2227.20;;;;;;5039165;28;20033;-60
2023/02/01 06:05:46;;;;;;;12.38;6.18;;;103.00;2227.20;;;;;;5031468;28;20033;-60
2023/02/01 06:08:13;;;;;;;13.95;9.45;;;103.20;2227.20;;;;;;5031555;28;20045;-60
2023/02/01 06:10:39;;;;;;;9.35;6.22;;;103.00;2227.20;;;;;;5031371;28;20029;-68
2023/02/01 06:13:04;;;;;;;87.32;48.83;;;103.10;2227.20;;;;;;5033148;28;20127;-60
2023/02/01 06:15:31;;;;;;;67.07;37.80;;;103.00;2227.20;;;;;;5042147;28;20036;-66
2023/02/01 06:17:57;;;;;;;182.57;93.65;;;103.10;2227.20;;;;;;5024848;28;20051;-59
2023/02/01 06:20:22;;;;;;;24.35;12.63;;;103.10;2227.20;;;;;;5044398;28;20041;-60
2023/02/01 06:22:48;;;;;;;11.23;7.35;;;103.10;2227.20;;;;;;5037449;28;20452;-60
2023/02/01 06:25:14;;;;;;;47.58;23.95;;;103.30;2227.20;;;;;;5033491;28;20044;-60
2023/02/01 06:27:40;;;;;;;114.13;65.38;;;103.30;2227.20;;;;;;5030860;28;20034;-59
2023/02/01 06:30:06;;;;;;;40.90;22.92;;;128.00;2252.80;;;;;;5030886;28;20025;-59
2023/02/01 06:32:32;;;;;;;21.48;13.18;;;128.10;2252.80;;;;;;5030782;28;20179;-60
2023/02/01 06:34:59;;;;;;;23.77;18.35;;;128.10;2252.80;;;;;;5031053;28;20491;-61
2023/02/01 06:37:27;;;;;;;17.20;9.93;;;128.50;2252.80;;;;;;5030797;28;20037;-60
2023/02/01 06:39:53;;;;;;;19.25;13.23;;;128.70;2252.80;;;;;;5029911;28;20037;-60
2023/02/01 06:42:18;;;;;;;15.40;11.75;;;128.90;2252.80;;;;;;5030780;28;20021;-60
2023/02/01 06:44:44;;;;;;;11.48;7.63;;;153.80;2252.80;;;;;;5030677;28;20384;-67
2023/02/01 06:47:10;;;;;;;45.33;27.17;;;154.00;2252.80;;;;;;5031753;28;20021;-60
2023/02/01 06:49:35;;;;;;;20.35;13.73;;;154.00;2252.80;;;;;;5050625;28;20036;-60
2023/02/01 06:52:01;;;;;;;27.08;20.75;;;154.10;2252.80;;;;;;5050823;28;20053;-68
2023/02/01 06:54:28;;;;;;;16.60;10.10;;;154.20;2227.20;;;;;;5050602;28;20467;-61
2023/02/01 06:56:53;;;;;;;25.98;14.50;;;154.30;2227.20;;;;;;5050328;28;20053;-68
2023/02/01 06:59:19;;;;;;;20.98;10.02;;;154.50;2201.60;;;;;;5050470;28;20438;-64
2023/02/01 07:01:45;;;;;;;16.58;9.40;;;179.20;2176.00;;;;;;5050184;28;20021;-61
2023/02/01 07:04:13;;;;;;;12.35;7.45;;;179.30;2150.40;;;;;;5050636;28;20033;-66
2023/02/01 07:06:41;;;;;;;83.13;56.42;;;179.50;2124.80;;;;;;5050891;28;20093;-61
2023/02/01 07:09:07;;;;;;;16.27;11.45;;;179.60;2150.40;;;;;;5050477;28;20029;-60
2023/02/01 07:11:33;;;;;;;27.55;15.23;;;179.60;2099.20;;;;;;5050856;28;20502;-63
2023/02/01 07:13:59;;;;;;;13.98;8.95;;;179.80;2099.20;;;;;;5051157;28;20029;-68
2023/02/01 07:16:25;;;;;;;14.07;9.32;;;179.90;2099.20;;;;;;5050610;28;20025;-61
2023/02/01 07:18:53;;;;;;;15.45;7.95;;;179.90;2073.60;;;;;;5050486;28;20041;-68
2023/02/01 07:21:27;;;;;;;17.27;10.07;;;180.00;2099.20;;;;;;5049566;28;20108;-68
2023/02/01 07:23:57;;;;;;;22.30;10.95;;;180.10;2073.60;;;;;;5050565;28;20029;-61
2023/02/01 07:26:23;;;;;;;11.30;6.70;;;180.10;2073.60;;;;;;5050467;28;20129;-62
2023/02/01 07:28:52;;;;;;;13.73;7.30;;;180.10;2073.60;;;;;;5050436;28;20025;-64
2023/02/01 07:31:21;;;;;;;11.90;7.75;;;180.10;2073.60;;;;;;5050067;28;20060;-64
2023/02/01 07:33:48;;;;;;;13.40;10.65;;;180.10;2073.60;;;;;;5050023;28;20471;-64
2023/02/01 07:36:16;;;;;;;12.43;9.85;;;204.80;2073.60;;;;;;5050099;28;20021;-63
2023/02/01 07:38:41;;;;;;;11.40;7.10;;;204.90;2099.20;;;;;;5050103;28;20025;-61
2023/02/01 07:41:08;;;;;;;25.35;12.18;;;205.20;2048.00;;;;;;5050091;28;20036;-61
2023/02/01 07:43:34;;;;;;;131.68;71.93;;;205.30;2022.40;;;;;;5050023;28;20048;-61
2023/02/01 07:46:01;;;;;;;16.67;9.60;;;205.30;1996.80;;;;;;5050066;28;20060;-60
2023/02/01 07:48:27;;;;;;;15.45;9.65;;;205.30;2022.40;;;;;;5050092;28;20082;-61
2023/02/01 07:51:06;;;;;;;19.60;12.20;;;205.20;2048.00;;;;;;5051303;28;20383;-60
2023/02/01 07:53:33;;;;;;;22.33;16.20;;;205.20;2048.00;;;;;;5053363;28;20065;-66
2023/02/01 07:56:00;;;;;;;174.80;117.45;;;205.30;2048.00;;;;;;5053803;28;20038;-61
2023/02/01 07:58:26;;;;;;;189.32;129.65;;;205.40;2022.40;;;;;;5053335;28;20029;-63
2023/02/01 08:03:37;;;;;;;117.32;82.20;;;205.70;1996.80;;;;;;5053751;28;20036;-64
2023/02/01 08:06:02;;;;;;;95.60;67.57;;;230.70;1971.20;;;;;;5053596;28;20116;-63
2023/02/01 08:08:28;;;;;;;66.38;44.58;;;231.20;1945.60;;;;;;5053556;28;20111;-64
2023/02/01 08:11:01;;;;;;;17.67;10.88;;;256.30;1894.40;;;;;;5053199;28;20028;-64
2023/02/01 08:13:27;;;;;;;;;;;256.30;1920.00;;;;;;5053572;28;20495;-64
2023/02/01 08:15:58;;;;;;;52.10;32.40;;;256.90;1843.20;;;;;;5053495;28;19915;-64
2023/02/01 08:18:23;;;;;;;519.38;316.58;;;332.90;1766.40;;;;;;5053199;28;20344;-65
2023/02/01 08:20:49;;;;;;;139.45;79.90;;;384.60;1587.20;;;;;;5053362;28;20032;-63
2023/02/01 08:23:15;;;;;;;130.43;80.68;;;436.10;1484.80;;;;;;5052870;28;20527;-63
2023/02/01 08:25:41;;;;;;;120.07;67.80;;;410.30;1484.80;;;;;;5053153;28;20376;-62
2023/02/01 08:28:07;;;;;;;29.63;20.90;;;384.50;1536.00;;;;;;5052708;28;20063;-63
2023/02/01 08:30:33;;;;;;;25.70;17.20;;;384.00;1561.60;;;;;;5053291;28;20131;-62
2023/02/01 08:32:58;;;;;;;17.70;11.45;;;435.50;1459.20;;;;;;5053001;28;20021;-63
2023/02/01 08:35:24;;;;;;;26.05;22.08;;;461.60;1408.00;;;;;;5052697;28;20074;-63
2023/02/01 08:37:50;;;;;;;18.48;14.25;;;486.80;1382.40;;;;;;5052953;28;20021;-63
2023/02/01 08:40:16;;;;;;;27.45;24.48;;;537.70;1305.60;;;;;;5052732;28;20429;-63
2023/02/01 08:42:51;;;;;;;14.77;11.45;;;537.60;1280.00;;;;;;5052819;28;20021;-62
2023/02/01 08:45:19;;;;;;;66.38;59.28;;;563.30;1254.40;;;;;;5052609;28;20258;-62
2023/02/01 08:47:46;;;;;;;23.00;20.38;;;537.90;1228.80;;;;;;5052235;28;20041;-63
2023/02/01 08:50:13;;;;;;;12.75;9.57;;;538.10;1254.40;;;;;;5052701;28;20033;-62
2023/02/01 08:52:39;;;;;;;14.38;12.23;;;487.20;1280.00;;;;;;5052655;28;20021;-63
2023/02/01 08:55:06;;;;;;;41.90;36.22;;;486.40;1331.20;;;;;;5052205;28;20036;-62
2023/02/01 08:57:33;;;;;;;38.20;29.52;;;461.40;1356.80;;;;;;5052382;28;20064;-62
2023/02/01 08:59:59;;;;;;;20.58;16.10;;;435.80;1382.40;;;;;;5052104;28;20033;-62
2023/02/01 09:02:25;;;;;;;27.83;23.30;;;460.90;1408.00;;;;;;5051517;28;20036;-62
2023/02/01 09:04:52;;;;;;;16.23;12.75;;;512.60;1280.00;;;;;;5052594;28;20032;-62
2023/02/01 09:07:17;;;;;;;25.70;19.45;;;538.50;1177.60;;;;;;5052276;28;20027;-63
2023/02/01 09:09:44;;;;;;;104.05;95.38;;;589.00;1177.60;;;;;;5052464;28;20509;-61
2023/02/01 09:12:10;;;;;;;13.10;9.57;;;589.20;1152.00;;;;;;5050867;28;20027;-64
2023/02/01 09:14:35;;;;;;;12.85;9.73;;;588.90;1126.40;;;;;;5052283;28;20551;-62
2023/02/01 09:17:01;;;;;;;185.48;126.00;;;538.00;1152.00;;;;;;5052385;28;20025;-60
2023/02/01 09:19:27;;;;;;;20.48;14.07;;;487.20;1177.60;;;;;;5051985;28;20067;-60
2023/02/01 09:21:53;;;;;;;29.13;21.83;;;461.70;1254.40;;;;;;5051828;28;20450;-61
2023/02/01 09:24:18;;;;;;;13.70;6.30;;;461.40;1280.00;;;;;;5059281;28;20029;-60
2023/02/01 09:26:44;;;;;;;15.38;11.18;;;487.30;1203.20;;;;;;5055652;28;20033;-61
2023/02/01 09:29:10;;;;;;;27.02;12.52;;;538.00;1177.60;;;;;;5055861;28;20555;-62
2023/02/01 09:31:36;;;;;;;16.85;11.40;;;563.40;1152.00;;;;;;5056791;28;20028;-61
2023/02/01 09:34:02;;;;;;;15.70;11.68;;;563.60;1126.40;;;;;;5058064;28;20109;-61
2023/02/01 09:36:28;;;;;;;13.18;9.27;;;537.60;1152.00;;;;;;5057511;28;20056;-64
2023/02/01 09:38:54;;;;;;;7.55;5.95;;;486.80;1203.20;;;;;;5056366;28;20454;-62
2023/02/01 09:41:45;;;;;;;10.07;6.05;;;486.90;1203.20;;;;;;5065966;28;20017;-61
2023/02/01 09:44:14;;;;;;;8.35;6.93;;;512.10;1203.20;;;;;;5066330;28;20081;-61
2023/02/01 09:46:40;;;;;;;15.25;12.05;;;512.70;1152.00;;;;;;5065731;28;20016;-62
2023/02/01 09:49:29;;;;;;;9.90;6.75;;;512.30;1177.60;;;;;;5049534;28;20037;-63
2023/02/01 09:51:57;;;;;;;9.27;7.75;;;486.90;1177.60;;;;;;5045935;28;20036;-61
2023/02/01 09:54:29;;;;;;;6.90;5.63;;;461.20;1228.80;;;;;;5028845;28;20116;-60
2023/02/01 09:57:10;;;;;;;13.77;9.30;;;436.10;1254.40;;;;;;5045969;28;20029;-61
2023/02/01 09:59:44;;;;;;;7.90;5.43;;;435.50;1280.00;;;;;;5046096;28;20033;-61
2023/02/01 10:02:20;;;;;;;7.97;5.38;;;410.20;1305.60;;;;;;5047221;28;20108;-60
2023/02/01 10:04:47;;;;;;;17.02;13.63;;;410.00;1356.80;;;;;;5046267;28;20131;-61
2023/02/01 10:07:30;;;;;;;10.10;7.30;;;409.60;1356.80;;;;;;5046644;28;20021;-61
2023/02/01 10:10:25;;;;;;;11.07;6.97;;;409.80;1356.80;;;;;;5045869;28;20063;-61
2023/02/01 10:13:26;;;;;;;11.63;8.13;;;410.00;1356.80;;;;;;5028877;28;20029;-62
2023/02/01 10:16:35;;;;;;;27.65;20.92;;;384.90;1331.20;;;;;;4973884;28;20034;-61
2023/02/01 10:19:12;;;;;;;7.28;5.22;;;435.20;1331.20;;;;;;4979505;28;20512;-61
2023/02/01 10:21:56;;;;;;;10.50;7.32;;;435.80;1280.00;;;;;;4981990;28;20037;-62
2023/02/01 10:24:42;;;;;;;10.88;5.80;;;460.90;1331.20;;;;;;4982059;28;20042;-61
2023/02/01 10:27:17;;;;;;;6.65;4.35;;;461.40;1254.40;;;;;;4981789;28;20570;-61
2023/02/01 10:29:47;;;;;;;4.60;3.30;;;461.40;1228.80;;;;;;4979184;28;20122;-62
2023/02/01 10:32:23;;;;;;;7.47;6.78;;;461.20;1254.40;;;;;;4981366;28;20452;-61
2023/02/01 10:34:58;;;;;;;13.10;10.07;;;461.20;1280.00;;;;;;4980661;28;20035;-61
2023/02/01 10:37:32;;;;;;;12.88;8.73;;;460.90;1254.40;;;;;;4979518;28;20480;-59
2023/02/01 10:40:10;;;;;;;7.55;5.53;;;435.50;1280.00;;;;;;4971350;28;20054;-62
2023/02/01 10:42:35;;;;;;;8.07;5.53;;;435.20;1331.20;;;;;;4977565;28;20057;-61
2023/02/01 10:45:03;;;;;;;7.70;5.90;;;409.80;1356.80;;;;;;4981701;28;20081;-63
2023/02/01 10:47:29;;;;;;;9.50;6.28;;;409.60;1356.80;;;;;;4981615;28;20130;-61
2023/02/01 10:50:31;;;;;;;11.70;7.93;;;384.70;1331.20;;;;;;4981045;28;20105;-62
2023/02/01 10:53:10;;;;;;;19.75;12.20;;;384.60;1356.80;;;;;;5047243;28;20107;-60
2023/02/01 10:55:45;;;;;;;14.63;9.40;;;384.10;1382.40;;;;;;5029790;28;20025;-62
2023/02/01 10:58:29;;;;;;;10.48;5.65;;;384.20;1382.40;;;;;;5046855;28;20021;-62
2023/02/01 11:01:03;;;;;;;16.95;10.63;;;359.10;1382.40;;;;;;5047287;28;20064;-61
2023/02/01 11:04:03;;;;;;;25.13;16.38;;;358.80;1408.00;;;;;;5048383;28;20106;-62
2023/02/01 11:06:43;;;;;;;16.05;11.80;;;333.70;1433.60;;;;;;4988909;28;20073;-63
2023/02/01 11:09:17;;;;;;;22.92;13.45;;;333.50;1459.20;;;;;;4989173;28;20039;-62
2023/02/01 11:11:46;;;;;;;21.75;14.73;;;332.90;1817.60;;;;;;4988856;28;20023;-63
2023/02/01 11:14:24;;;;;;;15.30;11.18;;;308.10;1561.60;;;;;;4988915;28;20453;-62
2023/02/01 11:16:54;;;;;;;27.70;18.02;;;307.70;1587.20;;;;;;4988989;28;20073;-62
2023/02/01 11:19:20;;;;;;;39.00;20.35;;;307.70;1587.20;;;;;;4988928;28;20044;-62
2023/02/01 11:21:54;;;;;;;21.55;14.95;;;307.50;1587.20;;;;;;4988520;28;20113;-63
2023/02/01 11:24:32;;;;;;;22.83;14.88;;;307.50;1612.80;;;;;;4988797;28;20058;-62
2023/02/01 11:27:01;;;;;;;25.05;12.95;;;307.40;1638.40;;;;;;4991669;28;20034;-63
2023/02/01 11:29:40;;;;;;;23.13;10.25;;;307.60;1612.80;;;;;;4992685;28;20035;-62
2023/02/01 11:32:08;;;;;;;26.63;13.48;;;282.50;1612.80;;;;;;4992702;28;20023;-63
2023/02/01 11:34:42;;;;;;;50.38;27.85;;;282.40;1638.40;;;;;;4992698;28;20030;-63
2023/02/01 11:37:18;;;;;;;21.88;13.23;;;307.30;1638.40;;;;;;4992583;28;20039;-63
2023/02/01 11:40:00;;;;;;;15.50;8.95;;;282.30;1612.80;;;;;;4992491;28;20504;-63
2023/02/01 11:42:28;;;;;;;23.20;13.23;;;282.30;1612.80;;;;;;5032428;28;20082;-61
2023/02/01 11:45:18;;;;;;;12.55;6.75;;;282.30;1612.80;;;;;;5054106;28;20017;-62
2023/02/01 11:47:45;;;;;;;15.68;8.55;;;307.20;1587.20;;;;;;5042507;28;20041;-62
2023/02/01 11:50:25;;;;;;;11.82;7.68;;;282.50;1587.20;;;;;;5053865;28;20170;-62
2023/02/01 11:53:15;;;;;;;25.25;14.35;;;282.40;1612.80;;;;;;5053222;28;20025;-61
2023/02/01 11:56:01;;;;;;;22.15;14.35;;;307.30;1638.40;;;;;;5053706;28;20074;-61
2023/02/01 11:58:50;;;;;;;15.52;9.55;;;307.20;1664.00;;;;;;5053623;28;20029;-61
2023/02/01 12:01:25;;;;;;;16.40;11.20;;;307.30;1638.40;;;;;;5053380;28;20387;-60
2023/02/01 12:03:59;;;;;;;19.80;11.52;;;307.60;1638.40;;;;;;5053620;28;20041;-62
2023/02/01 12:06:49;;;;;;;24.55;14.95;;;307.80;1612.80;;;;;;5053276;28;20024;-63
2023/02/01 12:09:36;;;;;;;13.45;9.10;;;308.10;1561.60;;;;;;5053327;28;20162;-62
2023/02/01 12:12:33;;;;;;;18.05;10.13;;;332.90;1587.20;;;;;;5053263;28;20028;-60
2023/02/01 12:15:17;;;;;;;12.32;8.88;;;332.80;1587.20;;;;;;5053168;28;20025;-62
2023/02/01 12:17:49;;;;;;;17.17;12.20;;;333.20;1561.60;;;;;;5053322;28;20028;-63
2023/02/01 12:20:32;;;;;;;19.02;11.00;;;333.10;1561.60;;;;;;5052816;28;20094;-63
2023/02/01 12:23:07;;;;;;;;;;;332.90;1587.20;;;;;;5053315;28;20059;-63
2023/02/01 12:25:36;;;;;;;13.48;9.73;;;333.10;1587.20;;;;;;5053125;28;20314;-61
2023/02/01 12:28:16;;;;;;;14.52;9.23;;;333.20;1561.60;;;;;;5053055;28;20029;-63
2023/02/01 12:30:50;;;;;;;36.50;24.58;;;333.10;1536.00;;;;;;5053156;28;20021;-63
2023/02/01 12:33:52;;;;;;;33.03;21.13;;;333.20;1561.60;;;;;;5052719;28;20375;-63
2023/02/01 12:36:40;;;;;;;17.85;9.80;;;332.80;1612.80;;;;;;5050281;28;20063;-62
2023/02/01 12:39:24;;;;;;;27.90;16.33;;;333.00;1587.20;;;;;;5049921;28;20036;-63
2023/02/01 12:42:11;;;;;;;30.95;18.13;;;332.90;1587.20;;;;;;5050957;28;20025;-62
2023/02/01 12:44:43;;;;;;;45.95;26.80;;;332.90;1587.20;;;;;;5050542;28;20029;-63
2023/02/01 12:47:40;;;;;;;47.30;29.23;;;332.80;1612.80;;;;;;5050687;28;20036;-63
2023/02/01 12:50:54;;;;;;;44.60;29.40;;;308.10;1587.20;;;;;;5047040;28;20064;-63